Main page
METAR-TAF:

METAR-TAF

Airports :

Desert Rock Airport

Mercury, Nevada, United States

latitude: 36-37-14N, longitude: 116-01-40W, elevation: 3303 ft

Current weather observation

The report was made 31 minutes ago, at 01:53 UTC
Wind 15 mph from the South with gusts up to 23 mph
Temperature 82°F
Humidity 12%
Pressure 29.77 in. Hg
Visibility: 10 miles
Clear sky

METAR: KDRA 230153Z AUTO 18013G20KT 10SM CLR 28/M04 A2977 RMK AO2 SLP039 T02781039

Time: 19:24 (02:24 UTC)


TAF: missing

Weather observations and forecasts of more than 4000 airports (METAR and TAF reports).

The available stations are represented by yellow and red dots on the map.

Hover mouse over dot to see the name of the station.

Then click to see weather observations and forecasts.

To change the map : click on the green buttons with a black cross to zoom in, on the green button with a dash to zoom out, or on the green arrows for adjacent maps.


METAR-TAF: